Time;durP1;ratioP1;P1;durP2;ratioP2;P2;SDS_P1;SDS_P2;PMS_P1;PMS_P2;Temp;Humidity;BMP_temperature;BMP_pressure;BME280_temperature;BME280_humidity;BME280_pressure;Samples;Min_cycle;Max_cycle;Signal;HPM_P1;HPM_P2
2021/07/06 00:00:47;;;;;;;0.20;0.20;;;;;;;18.66;72.04;98357.59;5074342;28;42433;-81
2021/07/06 00:03:15;;;;;;;0.50;0.40;;;;;;;18.65;71.85;98361.25;5078197;28;39996;-82
2021/07/06 00:05:43;;;;;;;0.20;0.20;;;;;;;18.61;71.73;98359.88;5070107;28;42791;-80
2021/07/06 00:08:10;;;;;;;0.40;0.40;;;;;;;18.47;71.70;98347.03;5054727;28;43253;-78
2021/07/06 00:10:38;;;;;;;0.40;0.40;;;;;;;18.49;71.58;98366.47;5070430;28;42504;-80
2021/07/06 00:13:06;;;;;;;0.20;0.20;;;;;;;18.33;71.62;98350.28;5061748;28;39322;-82
2021/07/06 00:15:35;;;;;;;0.30;0.30;;;;;;;18.41;71.69;98358.41;5073099;28;40938;-81
2021/07/06 00:18:03;;;;;;;0.20;0.20;;;;;;;18.36;71.64;98353.50;5107385;28;41836;-82
2021/07/06 00:20:31;;;;;;;0.40;0.40;;;;;;;18.33;72.09;98361.00;5071118;28;41271;-81
2021/07/06 00:23:02;;;;;;;0.40;0.40;;;;;;;18.28;71.79;98365.00;5088867;28;40788;-83
2021/07/06 00:25:30;;;;;;;0.20;0.20;;;;;;;18.25;72.21;98365.31;5087678;28;41918;-80
2021/07/06 00:27:58;;;;;;;0.20;0.20;;;;;;;18.18;71.94;98355.34;5070999;28;41837;-82
2021/07/06 00:30:27;;;;;;;0.53;0.53;;;;;;;18.18;71.81;98358.03;5071457;28;41476;-79
2021/07/06 00:32:56;;;;;;;0.30;0.30;;;;;;;18.01;72.10;98341.00;5087666;28;40922;-81
2021/07/06 00:35:24;;;;;;;0.30;0.30;;;;;;;18.11;72.08;98352.47;5088636;28;41829;-82
2021/07/06 00:37:52;;;;;;;0.30;0.30;;;;;;;18.11;72.04;98362.34;5088748;28;43818;-83
2021/07/06 00:40:20;;;;;;;0.43;0.30;;;;;;;18.07;72.48;98353.78;5086462;28;42544;-82
2021/07/06 00:42:49;;;;;;;0.30;0.30;;;;;;;18.03;72.57;98354.25;5083910;28;39848;-82
2021/07/06 00:45:18;;;;;;;0.50;0.33;;;;;;;17.88;72.73;98328.00;5066420;28;41599;-83
2021/07/06 00:47:47;;;;;;;0.50;0.50;;;;;;;17.95;72.79;98346.97;5091576;28;43838;-81
2021/07/06 00:50:19;;;;;;;0.40;0.40;;;;;;;18.00;73.27;98363.44;5088578;28;42413;-82
2021/07/06 00:52:47;;;;;;;0.40;0.40;;;;;;;17.99;73.25;98364.44;5087988;28;40200;-80
2021/07/06 00:55:15;;;;;;;0.30;0.30;;;;;;;17.95;73.09;98363.88;5088632;28;42609;-80
2021/07/06 00:57:43;;;;;;;0.40;0.40;;;;;;;17.85;73.00;98344.38;5070041;28;42720;-79
2021/07/06 01:00:13;;;;;;;0.27;0.27;;;;;;;17.91;73.14;98367.06;5085938;28;42111;-81
2021/07/06 01:02:41;;;;;;;0.30;0.30;;;;;;;17.88;72.79;98360.16;5088467;28;40810;-83
2021/07/06 01:05:11;;;;;;;0.40;0.40;;;;;;;17.79;73.25;98357.56;5069958;28;40700;-82
2021/07/06 01:07:40;;;;;;;0.40;0.40;;;;;;;17.83;73.19;98359.75;5086440;28;43873;-80
2021/07/06 01:10:10;;;;;;;0.20;0.20;;;;;;;17.80;73.03;98348.53;5086727;28;42457;-79
2021/07/06 01:12:38;;;;;;;0.30;0.30;;;;;;;17.81;73.32;98350.19;5088878;28;40264;-80
2021/07/06 01:15:08;;;;;;;0.60;0.60;;;;;;;17.69;73.15;98330.00;5069755;28;41667;-80
2021/07/06 01:17:37;;;;;;;0.30;0.30;;;;;;;17.75;73.17;98329.41;5086833;28;44334;-80
2021/07/06 01:20:09;;;;;;;0.30;0.30;;;;;;;17.63;74.17;98303.81;5086769;28;42607;-80
2021/07/06 01:22:38;;;;;;;0.57;0.57;;;;;;;17.67;73.91;98314.09;5087434;28;40017;-80
2021/07/06 01:25:09;;;;;;;0.50;0.43;;;;;;;17.69;74.01;98321.97;5086026;28;41735;-80
2021/07/06 01:27:39;;;;;;;0.30;0.30;;;;;;;17.58;73.50;98313.13;5067609;28;41875;-81
2021/07/06 01:30:10;;;;;;;0.30;0.30;;;;;;;17.62;73.43;98312.84;5066445;28;42175;-78
2021/07/06 01:32:40;;;;;;;0.40;0.40;;;;;;;17.62;73.78;98308.31;5068637;28;40883;-81
2021/07/06 01:35:11;;;;;;;0.40;0.37;;;;;;;17.49;73.28;98298.00;5096915;28;41063;-81
2021/07/06 01:37:45;;;;;;;0.30;0.30;;;;;;;17.58;73.54;98314.97;5090571;28;43048;-79
2021/07/06 01:40:14;;;;;;;0.30;0.30;;;;;;;17.55;73.37;98313.47;5089831;28;43252;-83
2021/07/06 01:42:43;;;;;;;0.50;0.50;;;;;;;17.52;73.24;98316.44;5053315;28;40409;-82
2021/07/06 01:45:13;;;;;;;0.30;0.30;;;;;;;17.46;73.32;98303.66;5069518;28;41592;-82
2021/07/06 01:47:43;;;;;;;0.50;0.50;;;;;;;17.41;73.63;98297.09;5069377;28;41792;-78
2021/07/06 01:50:13;;;;;;;0.40;0.40;;;;;;;17.15;73.34;98262.19;5077039;28;43066;-82
2021/07/06 01:52:46;;;;;;;0.30;0.30;;;;;;;17.42;73.35;98310.31;5089490;28;40068;-80
2021/07/06 01:55:17;;;;;;;0.23;0.23;;;;;;;17.28;73.53;98285.91;5072081;28;41657;-81
2021/07/06 01:57:45;;;;;;;0.40;0.40;;;;;;;17.34;73.40;98299.50;5071169;28;42596;-80
2021/07/06 02:00:16;;;;;;;0.27;0.27;;;;;;;17.32;73.21;98292.63;5069496;28;42408;-82
2021/07/06 02:02:44;;;;;;;0.30;0.30;;;;;;;17.25;73.92;98284.38;5067745;28;39773;-83
2021/07/06 02:05:27;;;;;;;0.30;0.30;;;;;;;17.22;74.01;98273.97;5052758;28;41745;-80
2021/07/06 02:07:56;;;;;;;0.20;0.20;;;;;;;17.30;74.08;98295.47;5085639;28;42120;-83
2021/07/06 02:10:25;;;;;;;0.50;0.30;;;;;;;17.24;73.88;98285.38;5067863;28;41467;-82
2021/07/06 02:12:53;;;;;;;0.30;0.30;;;;;;;17.26;73.54;98291.41;5083478;28;38936;-81
2021/07/06 02:15:21;;;;;;;0.30;0.30;;;;;;;17.24;73.96;98288.03;5090639;28;42021;-80
2021/07/06 02:17:48;;;;;;;0.30;0.30;;;;;;;17.16;73.85;98275.44;5089247;28;43632;-81
2021/07/06 02:20:17;;;;;;;0.27;0.27;;;;;;;17.18;73.69;98288.66;5071573;28;41143;-81
2021/07/06 02:22:47;;;;;;;0.40;0.40;;;;;;;17.04;73.67;98270.44;5105663;28;40707;-80
2021/07/06 02:25:18;;;;;;;0.30;0.30;;;;;;;17.10;73.93;98280.53;5088358;28;42642;-78
2021/07/06 02:27:47;;;;;;;0.23;0.23;;;;;;;16.94;73.70;98259.78;5111582;27;43009;-81
2021/07/06 02:30:17;;;;;;;0.30;0.30;;;;;;;17.02;73.46;98273.28;5051295;28;42030;-80
2021/07/06 02:32:45;;;;;;;0.30;0.30;;;;;;;17.06;73.55;98279.16;5068560;28;38927;-81
2021/07/06 02:35:13;;;;;;;0.17;0.17;;;;;;;16.93;73.22;98262.63;5068511;28;40820;-78
2021/07/06 02:37:41;;;;;;;0.20;0.20;;;;;;;17.00;73.31;98290.44;5051740;28;43036;-81
2021/07/06 02:40:12;;;;;;;0.40;0.40;;;;;;;16.96;73.24;98278.34;5051688;28;41444;-79
2021/07/06 02:42:41;;;;;;;0.30;0.30;;;;;;;16.93;73.91;98276.00;5068544;28;39200;-81
2021/07/06 02:45:11;;;;;;;0.50;0.50;;;;;;;16.81;74.07;98257.47;5085051;28;40840;-80
2021/07/06 02:47:39;;;;;;;0.77;0.53;;;;;;;16.85;73.72;98277.56;5084827;28;41701;-78
2021/07/06 02:50:09;;;;;;;0.30;0.30;;;;;;;16.74;73.69;98267.09;5069001;28;42045;-81
2021/07/06 02:52:37;;;;;;;0.20;0.20;;;;;;;16.81;73.76;98278.03;5068551;28;40290;-82
2021/07/06 02:55:07;;;;;;;0.20;0.20;;;;;;;16.80;74.05;98273.69;5051749;28;41567;-82
2021/07/06 02:57:35;;;;;;;0.40;0.40;;;;;;;16.77;74.18;98264.13;5086851;28;42900;-80
2021/07/06 03:00:22;;;;;;;0.30;0.30;;;;;;;16.45;74.20;98221.75;5088802;28;42574;-81
2021/07/06 03:02:52;;;;;;;0.37;0.37;;;;;;;16.71;74.44;98275.41;5071008;28;39233;-80
2021/07/06 03:05:23;;;;;;;0.30;0.30;;;;;;;16.68;74.29;98281.06;5070217;28;40814;-81
2021/07/06 03:07:51;;;;;;;0.30;0.30;;;;;;;16.64;74.18;98274.31;5067002;28;42837;-82
2021/07/06 03:10:22;;;;;;;0.67;0.50;;;;;;;16.64;74.21;98279.66;5050642;28;41295;-80
2021/07/06 03:12:50;;;;;;;0.40;0.40;;;;;;;16.62;74.31;98276.28;5050798;28;39939;-79
2021/07/06 03:15:21;;;;;;;0.30;0.30;;;;;;;16.59;74.23;98279.22;5070086;28;41935;-83
2021/07/06 03:17:49;;;;;;;0.73;0.73;;;;;;;16.62;74.25;98286.13;5078761;28;43888;-82
2021/07/06 03:20:18;;;;;;;0.40;0.40;;;;;;;16.50;74.26;98264.09;5072559;28;42654;-81
2021/07/06 03:22:47;;;;;;;0.40;0.40;;;;;;;16.60;74.55;98282.75;5071625;28;39893;-81
2021/07/06 03:25:18;;;;;;;0.63;0.50;;;;;;;16.53;74.48;98269.13;5088033;28;41625;-82
2021/07/06 03:27:45;;;;;;;0.40;0.40;;;;;;;16.60;74.47;98286.25;5074386;28;41718;-80
2021/07/06 03:30:16;;;;;;;0.23;0.23;;;;;;;16.60;74.41;98283.59;5090625;28;42120;-79
2021/07/06 03:32:45;;;;;;;0.33;0.33;;;;;;;16.59;74.19;98292.59;5071080;28;39185;-80
2021/07/06 03:35:13;;;;;;;0.47;0.40;;;;;;;16.58;74.28;98290.06;5070325;28;41671;-80
2021/07/06 03:37:42;;;;;;;0.40;0.40;;;;;;;16.61;75.01;98282.59;5071064;28;43188;-79
2021/07/06 03:40:11;;;;;;;0.40;0.40;;;;;;;16.60;75.00;98283.59;5071090;28;41501;-81
2021/07/06 03:42:39;;;;;;;0.30;0.30;;;;;;;16.64;74.72;98290.38;5087828;28;38943;-79
2021/07/06 03:45:09;;;;;;;0.50;0.50;;;;;;;16.66;74.74;98293.75;5108423;28;41041;-81
2021/07/06 03:47:37;;;;;;;0.50;0.30;;;;;;;16.58;74.39;98269.53;5122350;27;43294;-80
2021/07/06 03:50:10;;;;;;;0.50;0.50;;;;;;;16.67;74.50;98268.69;5071137;28;41712;-81
2021/07/06 03:52:38;;;;;;;0.60;0.60;;;;;;;16.71;74.54;98274.56;5054115;28;38904;-79
2021/07/06 03:55:07;;;;;;;0.50;0.50;;;;;;;16.73;74.34;98278.78;5088602;28;41100;-81
2021/07/06 03:57:36;;;;;;;0.57;0.57;;;;;;;16.72;74.63;98263.72;5083043;28;43001;-79
2021/07/06 04:00:07;;;;;;;0.30;0.30;;;;;;;16.71;74.35;98259.34;5074068;28;42458;-80
2021/07/06 04:02:40;;;;;;;0.30;0.30;;;;;;;16.78;74.20;98260.47;5090886;28;41188;-78
2021/07/06 04:05:11;;;;;;;0.40;0.40;;;;;;;16.79;74.15;98254.13;5071416;28;41900;-81
2021/07/06 04:07:40;;;;;;;0.30;0.30;;;;;;;16.87;73.88;98264.91;5069825;28;41971;-80
2021/07/06 04:10:10;;;;;;;0.40;0.40;;;;;;;16.85;74.21;98261.53;5104480;28;42566;-81
2021/07/06 04:12:39;;;;;;;0.30;0.30;;;;;;;16.89;73.91;98256.72;5054219;28;39973;-79
2021/07/06 04:15:10;;;;;;;0.23;0.23;;;;;;;17.05;73.94;98266.78;5087149;28;40388;-80
2021/07/06 04:17:38;;;;;;;0.30;0.30;;;;;;;17.13;73.37;98264.19;5053802;28;42106;-79
2021/07/06 04:20:07;;;;;;;0.30;0.30;;;;;;;17.20;73.26;98268.75;5066792;28;42056;-81
2021/07/06 04:22:37;;;;;;;0.40;0.40;;;;;;;17.29;73.38;98271.53;5087095;28;40928;-80
2021/07/06 04:25:06;;;;;;;0.40;0.40;;;;;;;17.27;73.29;98244.09;5069954;28;40733;-83
2021/07/06 04:27:33;;;;;;;0.20;0.20;;;;;;;17.41;72.96;98251.59;5069572;28;41792;-82
2021/07/06 04:30:01;;;;;;;0.30;0.30;;;;;;;17.51;73.21;98255.84;5085636;28;43680;-82
2021/07/06 04:32:29;;;;;;;0.40;0.40;;;;;;;17.60;72.90;98252.25;5072945;28;38848;-80
2021/07/06 04:34:56;;;;;;;0.27;0.27;;;;;;;17.69;72.54;98249.66;5089940;28;41700;-80
2021/07/06 04:37:23;;;;;;;0.40;0.40;;;;;;;17.78;72.89;98248.75;5089869;28;42018;-83
2021/07/06 04:39:53;;;;;;;0.40;0.40;;;;;;;17.87;72.43;98254.00;5089590;28;42530;-81
2021/07/06 04:42:20;;;;;;;1.93;0.90;;;;;;;17.98;72.47;98244.00;5091025;28;40255;-79
2021/07/06 04:44:47;;;;;;;0.33;0.33;;;;;;;17.99;72.54;98221.59;5073780;28;40634;-81
2021/07/06 04:47:15;;;;;;;0.40;0.40;;;;;;;18.14;73.05;98233.41;5070993;28;42076;-79
2021/07/06 04:49:42;;;;;;;0.70;0.70;;;;;;;18.22;72.97;98226.25;5101258;28;42477;-79
2021/07/06 04:52:10;;;;;;;0.50;0.50;;;;;;;18.40;72.79;98236.06;5090112;28;42082;-81
2021/07/06 04:54:38;;;;;;;0.83;0.57;;;;;;;18.56;72.69;98239.63;5089926;28;41715;-81
2021/07/06 04:57:07;;;;;;;0.70;0.60;;;;;;;18.61;72.25;98220.44;5089509;28;43025;-79
2021/07/06 04:59:35;;;;;;;0.70;0.70;;;;;;;18.85;72.16;98219.66;5072423;28;41119;-79
2021/07/06 05:02:04;;;;;;;0.47;0.40;;;;;;;19.06;71.57;98229.94;5089724;28;40024;-79
2021/07/06 05:04:32;;;;;;;0.60;0.57;;;;;;;19.22;71.87;98224.63;5073111;28;40707;-81
2021/07/06 05:06:59;;;;;;;1.13;0.90;;;;;;;19.38;71.74;98224.63;5089026;28;43199;-81
2021/07/06 05:09:27;;;;;;;0.70;0.70;;;;;;;19.49;71.32;98224.34;5072356;28;42803;-81
2021/07/06 05:11:54;;;;;;;0.67;0.67;;;;;;;19.57;70.46;98212.75;5088829;28;38951;-84
2021/07/06 05:14:23;;;;;;;0.40;0.40;;;;;;;19.63;70.52;98202.19;5089875;28;42118;-81
2021/07/06 05:16:51;;;;;;;0.50;0.50;;;;;;;19.79;70.19;98217.44;5087854;28;42270;-81
2021/07/06 05:19:18;;;;;;;0.80;0.80;;;;;;;19.98;70.25;98233.22;5089317;28;42260;-85
2021/07/06 05:21:46;;;;;;;3.47;1.00;;;;;;;20.07;69.65;98236.72;5089677;28;40234;-84
2021/07/06 05:24:14;;;;;;;0.70;0.70;;;;;;;20.14;69.54;98236.88;5106011;28;42030;-83
2021/07/06 05:26:41;;;;;;;0.60;0.60;;;;;;;20.27;69.27;98238.03;5089919;27;42344;-82
2021/07/06 05:29:09;;;;;;;0.63;0.50;;;;;;;20.27;69.26;98232.66;5069230;28;41496;-82
2021/07/06 05:31:38;;;;;;;0.50;0.50;;;;;;;20.36;68.86;98238.88;5069401;28;40203;-83
2021/07/06 05:34:08;;;;;;;0.50;0.50;;;;;;;20.36;68.77;98231.66;5068867;28;40825;-82
2021/07/06 05:36:36;;;;;;;0.50;0.50;;;;;;;20.47;68.70;98237.66;5052724;28;41914;-83
2021/07/06 05:39:06;;;;;;;0.60;0.60;;;;;;;20.55;68.67;98221.47;5052398;28;41014;-82
2021/07/06 05:41:34;;;;;;;0.57;0.53;;;;;;;20.63;68.35;98221.47;5069990;28;41086;-81
2021/07/06 05:44:02;;;;;;;0.33;0.33;;;;;;;20.71;68.15;98216.03;5079796;28;41721;-81
2021/07/06 05:46:30;;;;;;;0.87;0.60;;;;;;;20.76;67.87;98216.34;5089474;28;42684;-83
2021/07/06 05:48:59;;;;;;;0.60;0.60;;;;;;;20.87;67.68;98234.81;5089646;28;42418;-81
2021/07/06 05:51:26;;;;;;;0.40;0.40;;;;;;;20.91;67.70;98228.03;5084617;28;40237;-85
2021/07/06 05:53:54;;;;;;;0.40;0.40;;;;;;;21.09;67.54;98236.69;5062399;28;40767;-85
2021/07/06 05:56:22;;;;;;;1.17;1.07;;;;;;;21.19;66.41;98244.56;5072525;28;41881;-83
2021/07/06 05:58:50;;;;;;;0.60;0.57;;;;;;;21.36;66.44;98234.53;5087955;28;42468;-86
2021/07/06 06:01:18;;;;;;;0.50;0.50;;;;;;;21.59;66.06;98224.59;5085564;28;40028;-83
2021/07/06 06:03:46;;;;;;;0.50;0.50;;;;;;;21.88;65.68;98235.44;5080743;28;42020;-86
2021/07/06 06:06:15;;;;;;;0.53;0.53;;;;;;;22.14;64.70;98243.13;5071879;28;41687;-84
2021/07/06 06:08:42;;;;;;;0.40;0.40;;;;;;;22.29;64.16;98232.38;5070970;28;41327;-85
2021/07/06 06:11:11;;;;;;;0.50;0.50;;;;;;;22.33;64.21;98222.91;5073173;28;38760;-88
2021/07/06 06:13:38;;;;;;;0.73;0.50;;;;;;;22.34;62.95;98240.75;5071965;28;41070;-82
2021/07/06 06:16:07;;;;;;;0.43;0.43;;;;;;;22.31;62.73;98241.13;5072479;28;42182;-84
2021/07/06 06:18:34;;;;;;;0.63;0.50;;;;;;;22.32;63.43;98223.91;5088946;28;41139;-81
2021/07/06 06:21:02;;;;;;;0.67;0.67;;;;;;;22.44;64.00;98213.50;5058525;28;38879;-86
2021/07/06 06:23:31;;;;;;;0.40;0.40;;;;;;;22.62;64.06;98183.44;5098597;28;41020;-83
2021/07/06 06:25:58;;;;;;;0.80;0.57;;;;;;;23.07;63.27;98202.06;5106621;28;42721;-81
2021/07/06 06:28:27;;;;;;;0.60;0.60;;;;;;;23.03;62.99;98208.88;5102670;28;41499;-85
2021/07/06 06:30:55;;;;;;;0.50;0.50;;;;;;;23.15;62.79;98206.50;5051410;28;40412;-84
2021/07/06 06:33:23;;;;;;;0.40;0.40;;;;;;;23.33;62.21;98208.78;5052108;28;40756;-84
2021/07/06 06:35:52;;;;;;;0.67;0.50;;;;;;;23.60;62.35;98221.56;5053277;28;43146;-85
2021/07/06 06:38:19;;;;;;;0.40;0.40;;;;;;;23.86;61.33;98215.53;5063712;28;41432;-79
2021/07/06 06:40:48;;;;;;;0.40;0.40;;;;;;;23.96;61.12;98210.63;5052897;28;40242;-79
2021/07/06 06:43:16;;;;;;;0.50;0.50;;;;;;;24.13;59.87;98211.16;5067579;28;40857;-78
2021/07/06 06:45:45;;;;;;;0.60;0.60;;;;;;;24.33;59.25;98217.56;5066957;28;43670;-75
2021/07/06 06:48:13;;;;;;;0.40;0.40;;;;;;;24.40;59.07;98207.59;5066878;28;43141;-76
2021/07/06 06:50:40;;;;;;;0.60;0.60;;;;;;;24.62;58.14;98211.88;5053735;28;40856;-75
2021/07/06 06:53:08;;;;;;;0.60;0.60;;;;;;;24.98;57.98;98217.06;5081021;28;40646;-75
2021/07/06 06:55:35;;;;;;;0.60;0.53;;;;;;;25.35;58.09;98217.59;5091096;28;43473;-75
2021/07/06 06:58:04;;;;;;;4.23;2.97;;;;;;;25.35;57.49;98223.84;5071336;28;42534;-75
2021/07/06 07:00:33;;;;;;;1.10;1.00;;;;;;;25.52;56.73;98234.31;5070696;28;39844;-81
2021/07/06 07:03:00;;;;;;;1.20;0.60;;;;;;;25.75;55.14;98242.94;5070842;28;41011;-78
2021/07/06 07:05:27;;;;;;;2.53;1.10;;;;;;;25.78;54.85;98228.97;5069994;28;41715;-77
2021/07/06 07:07:57;;;;;;;0.40;0.40;;;;;;;26.02;54.96;98236.47;5068757;28;41205;-77
2021/07/06 07:10:25;;;;;;;0.43;0.43;;;;;;;26.29;55.38;98233.78;5087475;28;39370;-76
2021/07/06 07:12:53;;;;;;;0.30;0.30;;;;;;;26.80;54.58;98223.00;5099604;28;40670;-78
2021/07/06 07:15:22;;;;;;;0.40;0.40;;;;;;;26.97;53.12;98209.78;5069954;28;42019;-78
2021/07/06 07:17:50;;;;;;;0.50;0.50;;;;;;;26.99;52.54;98226.69;5085290;28;44683;-81
2021/07/06 07:20:18;;;;;;;0.43;0.43;;;;;;;26.89;53.84;98215.44;5087003;28;41096;-78
2021/07/06 07:22:45;;;;;;;0.40;0.40;;;;;;;26.80;54.17;98203.97;5069803;28;40927;-80
2021/07/06 07:25:14;;;;;;;0.47;0.47;;;;;;;26.79;53.91;98200.41;5088378;28;42902;-84
2021/07/06 07:27:41;;;;;;;0.40;0.40;;;;;;;26.82;52.93;98194.56;5087530;28;41495;-78
2021/07/06 07:30:12;;;;;;;0.60;0.60;;;;;;;27.05;53.21;98187.78;5070841;28;39112;-83
2021/07/06 07:32:42;;;;;;;0.40;0.40;;;;;;;27.50;52.44;98192.09;5089115;28;40864;-77
2021/07/06 07:35:10;;;;;;;0.57;0.57;;;;;;;28.29;51.19;98206.16;5065021;28;42098;-81
2021/07/06 07:37:38;;;;;;;0.50;0.50;;;;;;;29.29;48.64;98204.78;5052841;28;41385;-80
2021/07/06 07:40:07;;;;;;;0.37;0.37;;;;;;;30.34;45.31;98205.84;5053854;28;38987;-78
2021/07/06 07:42:35;;;;;;;0.40;0.40;;;;;;;31.77;41.82;98237.81;5052903;28;41627;-77
2021/07/06 07:45:03;;;;;;;0.50;0.50;;;;;;;33.39;38.96;98244.91;5053339;28;41730;-77
2021/07/06 07:47:30;;;;;;;0.50;0.50;;;;;;;34.85;35.99;98251.97;5054378;28;41192;-76
2021/07/06 07:50:00;;;;;;;0.50;0.50;;;;;;;36.19;34.14;98266.72;5070534;28;39940;-82
2021/07/06 07:52:28;;;;;;;0.60;0.60;;;;;;;37.40;32.12;98272.00;5052421;28;40999;-77
2021/07/06 07:54:55;;;;;;;0.57;0.57;;;;;;;38.65;30.46;98287.22;5052405;28;42015;-78
2021/07/06 07:57:25;;;;;;;0.65;0.65;;;;;;;39.71;29.88;98276.00;5074080;28;43274;-76
2021/07/06 07:59:53;;;;;;;0.40;0.40;;;;;;;40.71;28.51;98288.59;5123681;27;40000;-76
2021/07/06 08:02:23;;;;;;;0.43;0.43;;;;;;;39.54;28.32;98292.34;5089790;28;41610;-75
2021/07/06 08:04:50;;;;;;;0.50;0.50;;;;;;;37.88;31.20;98275.06;5089394;28;41684;-76
2021/07/06 08:07:20;;;;;;;0.40;0.40;;;;;;;36.50;32.60;98240.78;5078162;28;42588;-77
2021/07/06 08:09:47;;;;;;;0.30;0.30;;;;;;;35.62;33.64;98223.63;5070712;28;41157;-77
2021/07/06 08:12:15;;;;;;;0.53;0.53;;;;;;;35.14;34.72;98222.91;5070757;28;42829;-77
2021/07/06 08:14:42;;;;;;;1.60;1.20;;;;;;;35.11;34.95;98206.97;5090995;28;43795;-78
2021/07/06 08:17:11;;;;;;;0.83;0.67;;;;;;;35.04;35.09;98211.03;5122803;27;43324;-77
2021/07/06 08:19:38;;;;;;;0.60;0.60;;;;;;;36.14;33.72;98176.53;5089839;28;39124;-75
2021/07/06 08:22:06;;;;;;;0.57;0.57;;;;;;;38.04;31.18;98237.91;5072258;28;41222;-75
2021/07/06 08:24:35;;;;;;;0.70;0.70;;;;;;;39.37;29.07;98251.22;5090561;28;42752;-75
2021/07/06 08:27:02;;;;;;;0.40;0.40;;;;;;;39.86;27.97;98267.50;5123376;27;43212;-75
2021/07/06 08:29:31;;;;;;;0.50;0.50;;;;;;;39.73;28.41;98259.91;5106714;27;39384;-75
2021/07/06 08:31:59;;;;;;;0.40;0.40;;;;;;;38.65;29.35;98265.06;5086947;28;41984;-76
2021/07/06 08:34:26;;;;;;;0.60;0.60;;;;;;;37.11;31.61;98257.19;5072678;28;43080;-78
2021/07/06 08:36:54;;;;;;;0.50;0.50;;;;;;;35.67;32.93;98253.13;5090369;28;42419;-77
2021/07/06 08:39:21;;;;;;;0.40;0.40;;;;;;;34.57;35.03;98240.22;5088923;28;39823;-77
2021/07/06 08:41:50;;;;;;;0.50;0.50;;;;;;;34.03;36.41;98227.69;5088607;28;42785;-76
2021/07/06 08:44:20;;;;;;;0.47;0.47;;;;;;;33.89;36.71;98178.66;5090612;28;42774;-77
2021/07/06 08:46:50;;;;;;;0.50;0.50;;;;;;;34.30;35.97;98179.00;5094341;28;43318;-78
2021/07/06 08:49:20;;;;;;;0.50;0.50;;;;;;;34.45;36.14;98187.34;5086761;28;40178;-74
2021/07/06 08:51:50;;;;;;;0.80;0.80;;;;;;;34.11;36.07;98175.00;5091786;28;40661;-76
2021/07/06 08:54:18;;;;;;;0.47;0.47;;;;;;;33.68;36.55;98146.59;5090815;28;42998;-76
2021/07/06 08:56:46;;;;;;;0.60;0.60;;;;;;;33.60;37.37;98188.28;5091468;28;43225;-77
2021/07/06 08:59:15;;;;;;;0.30;0.30;;;;;;;33.32;37.83;98188.56;5070495;28;40938;-76
2021/07/06 09:01:42;;;;;;;0.40;0.40;;;;;;;32.86;39.00;98190.75;5069238;28;41350;-75
2021/07/06 09:04:11;;;;;;;0.37;0.30;;;;;;;32.52;40.55;98175.47;5086859;28;43102;-76
2021/07/06 09:06:54;;;;;;;0.40;0.40;;;;;;;32.27;40.90;98160.28;5087994;28;42605;-75
2021/07/06 09:09:23;;;;;;;1.70;1.40;;;;;;;32.10;40.92;98175.91;5089143;28;40294;-76
2021/07/06 09:12:01;;;;;;;0.67;0.67;;;;;;;32.01;41.94;98177.41;5090260;28;41907;-77
2021/07/06 09:14:30;;;;;;;0.47;0.47;;;;;;;31.95;41.49;98184.72;5094117;28;43678;-83
2021/07/06 09:17:12;;;;;;;0.50;0.50;;;;;;;32.02;40.80;98179.09;5082022;28;42551;-90
2021/07/06 09:19:42;;;;;;;0.30;0.30;;;;;;;32.07;40.11;98193.69;5088886;28;38900;-86
2021/07/06 09:22:12;;;;;;;0.50;0.50;;;;;;;32.02;40.49;98181.81;5053124;28;41602;-89
2021/07/06 09:24:43;;;;;;;0.40;0.40;;;;;;;32.08;40.41;98206.28;5072875;28;42054;-90
2021/07/06 09:27:29;;;;;;;0.40;0.40;;;;;;;31.81;40.01;98207.19;5106137;28;41307;-89
2021/07/06 09:30:12;;;;;;;0.43;0.43;;;;;;;31.42;40.85;98217.97;5072828;28;38836;-86
2021/07/06 09:32:42;;;;;;;0.30;0.30;;;;;;;30.97;41.39;98226.91;5071889;28;40992;-86
2021/07/06 09:35:12;;;;;;;0.40;0.40;;;;;;;30.57;42.92;98220.56;5072688;28;41795;-87
2021/07/06 09:37:47;;;;;;;0.30;0.30;;;;;;;30.10;42.87;98223.28;5072740;28;41165;-87
2021/07/06 09:40:22;;;;;;;0.60;0.27;;;;;;;29.85;43.98;98219.91;5089319;28;39152;-85
2021/07/06 09:43:16;;;;;;;0.20;0.20;;;;;;;29.65;44.45;98237.44;5090165;28;42059;-82
2021/07/06 09:45:51;;;;;;;0.30;0.30;;;;;;;29.48;45.57;98230.97;5083675;28;41878;-85
2021/07/06 09:48:19;;;;;;;0.60;0.60;;;;;;;29.12;46.49;98218.22;5096717;28;42040;-88
2021/07/06 09:50:48;;;;;;;0.33;0.33;;;;;;;28.96;47.19;98246.09;5073828;28;20280;-84
2021/07/06 09:53:26;;;;;;;0.30;0.30;;;;;;;28.71;47.69;98259.75;5088871;28;41674;-86
2021/07/06 09:55:54;;;;;;;0.30;0.30;;;;;;;28.44;48.08;98258.38;5088482;28;43122;-87
2021/07/06 09:58:23;;;;;;;0.70;0.40;;;;;;;28.30;49.21;98282.19;5089230;28;41683;-87
2021/07/06 10:00:52;;;;;;;0.43;0.43;;;;;;;28.07;50.08;98269.13;5072051;28;39321;-87
2021/07/06 10:03:21;;;;;;;0.43;0.30;;;;;;;27.97;50.53;98309.63;5067997;28;40757;-84
2021/07/06 10:05:50;;;;;;;2.60;0.70;;;;;;;27.78;50.75;98313.34;5062782;28;41830;-85
2021/07/06 10:08:18;;;;;;;0.50;0.50;;;;;;;27.53;50.19;98349.44;5052383;28;41098;-87
2021/07/06 10:10:46;;;;;;;0.57;0.53;;;;;;;27.29;50.89;98377.38;5069905;28;39241;-85
2021/07/06 10:13:14;;;;;;;0.40;0.40;;;;;;;26.92;52.53;98367.19;5061578;28;40809;-86
2021/07/06 10:15:42;;;;;;;0.33;0.33;;;;;;;26.50;53.11;98361.16;5063501;28;41712;-86
2021/07/06 10:18:13;;;;;;;0.33;0.33;;;;;;;26.21;53.73;98388.69;5061639;28;41349;-88
2021/07/06 10:20:41;;;;;;;0.80;0.57;;;;;;;25.80;54.04;98405.09;5072849;28;39190;-87
2021/07/06 10:23:09;;;;;;;0.30;0.30;;;;;;;25.50;55.41;98418.06;5071488;28;41013;-86
2021/07/06 10:25:40;;;;;;;0.40;0.40;;;;;;;25.28;56.35;98412.75;5068703;28;41781;-89
2021/07/06 10:28:16;;;;;;;0.30;0.30;;;;;;;25.16;55.62;98427.91;5068332;28;41672;-89
2021/07/06 10:30:46;;;;;;;0.40;0.40;;;;;;;25.10;56.32;98420.53;5052413;28;39048;-83
2021/07/06 10:33:16;;;;;;;0.30;0.30;;;;;;;25.05;57.09;98415.75;5051596;28;41653;-85
2021/07/06 10:35:50;;;;;;;0.40;0.40;;;;;;;25.03;56.73;98441.34;5086132;28;42760;-88
2021/07/06 10:38:40;;;;;;;0.40;0.40;;;;;;;24.88;57.71;98451.41;5070942;28;41860;-88
2021/07/06 10:41:09;;;;;;;0.30;0.30;;;;;;;24.73;58.29;98434.44;5052510;28;39982;-88
2021/07/06 10:43:58;;;;;;;5.00;0.70;;;;;;;24.77;59.69;98414.88;5050921;28;40742;-88
2021/07/06 10:46:43;;;;;;;0.23;0.23;;;;;;;24.75;58.64;98410.69;5061893;28;43211;-87
2021/07/06 10:49:15;;;;;;;0.20;0.20;;;;;;;24.62;60.35;98417.66;5072836;28;41579;-88
2021/07/06 10:51:51;;;;;;;0.40;0.40;;;;;;;24.41;60.03;98412.28;5088547;28;39244;-87
2021/07/06 10:54:26;;;;;;;0.20;0.20;;;;;;;24.34;60.54;98404.13;5068522;28;41715;-89
2021/07/06 10:56:56;;;;;;;0.30;0.30;;;;;;;24.61;61.45;98420.56;5051695;28;42303;-88
2021/07/06 10:59:25;;;;;;;0.53;0.53;;;;;;;24.81;60.89;98428.88;5051530;28;41555;-89
2021/07/06 11:02:04;;;;;;;0.30;0.30;;;;;;;24.93;60.52;98397.53;5085369;28;38820;-87
2021/07/06 11:05:05;;;;;;;0.37;0.30;;;;;;;25.03;60.32;98392.59;5051368;28;41147;-89
2021/07/06 11:08:00;;;;;;;0.30;0.30;;;;;;;24.70;60.99;98355.25;5052296;28;42885;-91
2021/07/06 11:10:39;;;;;;;0.27;0.27;;;;;;;24.75;61.45;98361.94;5051760;28;42088;-92
2021/07/06 11:13:21;;;;;;;0.20;0.20;;;;;;;24.55;60.81;98324.75;5068007;28;39906;-91
2021/07/06 11:15:49;;;;;;;0.30;0.30;;;;;;;24.87;61.97;98338.69;5071836;28;41155;-91
2021/07/06 11:18:17;;;;;;;0.30;0.30;;;;;;;25.13;61.13;98328.03;5105334;27;43225;-90
2021/07/06 11:20:48;;;;;;;0.37;0.37;;;;;;;25.55;60.04;98317.97;5071456;28;41142;-88
2021/07/06 11:23:31;;;;;;;0.20;0.20;;;;;;;25.89;59.61;98317.03;5057127;28;38914;-91
2021/07/06 11:26:07;;;;;;;0.20;0.20;;;;;;;26.56;57.94;98340.47;5050807;28;40866;-89
2021/07/06 11:28:49;;;;;;;0.20;0.20;;;;;;;27.03;56.38;98347.53;5067202;28;41619;-89
2021/07/06 11:31:18;;;;;;;0.23;0.20;;;;;;;27.16;55.15;98331.19;5050965;28;42349;-89
2021/07/06 11:33:46;;;;;;;0.30;0.30;;;;;;;27.25;54.09;98340.75;5052220;28;39987;-89
2021/07/06 11:36:22;;;;;;;0.30;0.30;;;;;;;27.26;54.54;98336.16;5087263;28;40776;-89
2021/07/06 11:38:52;;;;;;;0.20;0.20;;;;;;;27.18;53.92;98312.78;5054888;28;41716;-88
2021/07/06 11:41:23;;;;;;;0.30;0.30;;;;;;;27.45;53.74;98319.75;5054462;28;41341;-89
2021/07/06 11:43:51;;;;;;;0.40;0.40;;;;;;;28.11;52.65;98303.03;5055614;28;38867;-88
2021/07/06 11:46:22;;;;;;;0.20;0.20;;;;;;;28.98;51.07;98319.47;5053436;28;40520;-90